Time;durP1;ratioP1;P1;durP2;ratioP2;P2;SDS_P1;SDS_P2;PMS_P1;PMS_P2;Temp;Humidity;BMP_temperature;BMP_pressure;BME280_temperature;BME280_humidity;BME280_pressure;Samples;Min_cycle;Max_cycle;Signal;HPM_P1;HPM_P2
2021/04/24 00:00:46;;;;;;;40.67;23.77;;;;;;;;;;5033623;28;20171;-81
2021/04/24 00:03:11;;;;;;;44.90;27.97;;;;;;;;;;5033630;28;20183;-81
2021/04/24 00:05:41;;;;;;;46.00;27.17;;;;;;;;;;5033600;28;20165;-81
2021/04/24 00:08:07;;;;;;;44.57;25.90;;;;;;;;;;5034160;28;20648;-81
2021/04/24 00:10:34;;;;;;;39.27;24.50;;;;;;;;;;5033855;28;20168;-81
2021/04/24 00:13:00;;;;;;;35.77;22.37;;;;;;;;;;5033752;28;20682;-81
2021/04/24 00:15:25;;;;;;;64.03;36.70;;;;;;;;;;5033521;28;20179;-81
2021/04/24 00:17:50;;;;;;;37.70;21.80;;;;;;;;;;5034630;28;20172;-81
2021/04/24 00:20:18;;;;;;;29.80;17.77;;;;;;;;;;5037637;28;20180;-81
2021/04/24 00:22:43;;;;;;;26.17;15.33;;;;;;;;;;5038209;28;20198;-81
2021/04/24 00:25:09;;;;;;;26.07;13.43;;;;;;;;;;5037873;28;20499;-81
2021/04/24 00:27:35;;;;;;;22.30;12.80;;;;;;;;;;5037746;28;20177;-82
2021/04/24 00:30:00;;;;;;;18.93;12.40;;;;;;;;;;5036155;28;20165;-82
2021/04/24 00:32:25;;;;;;;21.27;12.23;;;;;;;;;;5036011;28;20195;-81
2021/04/24 00:34:51;;;;;;;23.93;13.73;;;;;;;;;;5037345;28;20176;-81
2021/04/24 00:37:16;;;;;;;18.87;12.37;;;;;;;;;;5037571;28;20191;-81
2021/04/24 00:39:41;;;;;;;22.87;13.03;;;;;;;;;;5037661;28;20224;-81
2021/04/24 00:42:07;;;;;;;30.10;18.07;;;;;;;;;;5037799;28;20168;-81
2021/04/24 00:44:32;;;;;;;30.43;19.77;;;;;;;;;;5037501;28;20180;-81
2021/04/24 00:46:58;;;;;;;27.70;18.47;;;;;;;;;;5037370;28;20526;-81
2021/04/24 00:49:23;;;;;;;29.33;18.63;;;;;;;;;;5037549;28;20180;-81
2021/04/24 00:51:48;;;;;;;23.23;16.00;;;;;;;;;;5037266;28;20236;-81
2021/04/24 00:54:14;;;;;;;26.33;16.67;;;;;;;;;;5037015;28;20207;-81
2021/04/24 00:56:39;;;;;;;22.73;15.27;;;;;;;;;;5037304;28;20177;-81
2021/04/24 00:59:05;;;;;;;23.40;13.07;;;;;;;;;;5036977;28;20164;-81
2021/04/24 01:01:30;;;;;;;22.27;13.20;;;;;;;;;;5036948;28;20616;-81
2021/04/24 01:03:56;;;;;;;23.27;12.27;;;;;;;;;;5037202;28;20632;-81
2021/04/24 01:06:21;;;;;;;22.07;12.90;;;;;;;;;;5036865;28;20172;-81
2021/04/24 01:08:46;;;;;;;20.83;14.20;;;;;;;;;;5035897;28;20177;-82
2021/04/24 01:11:12;;;;;;;23.23;14.87;;;;;;;;;;5037112;28;20179;-81
2021/04/24 01:13:37;;;;;;;21.33;13.60;;;;;;;;;;5037467;28;20286;-81
2021/04/24 01:16:02;;;;;;;24.67;14.60;;;;;;;;;;5036698;28;20231;-81
2021/04/24 01:18:28;;;;;;;26.60;15.93;;;;;;;;;;5036905;28;20254;-82
2021/04/24 01:20:55;;;;;;;27.90;18.70;;;;;;;;;;5037425;28;20169;-82
2021/04/24 01:23:20;;;;;;;29.17;19.03;;;;;;;;;;5037100;28;20176;-82
2021/04/24 01:25:45;;;;;;;30.10;18.87;;;;;;;;;;5036890;28;20263;-82
2021/04/24 01:28:11;;;;;;;37.33;23.47;;;;;;;;;;5035504;28;20184;-81
2021/04/24 01:30:38;;;;;;;40.83;25.43;;;;;;;;;;5035670;28;20179;-81
2021/04/24 01:33:09;;;;;;;42.30;24.90;;;;;;;;;;5036552;28;20200;-82
2021/04/24 01:35:35;;;;;;;35.83;23.03;;;;;;;;;;5036344;28;20240;-81
2021/04/24 01:38:01;;;;;;;37.97;24.23;;;;;;;;;;5036261;28;20219;-81
2021/04/24 01:40:27;;;;;;;38.77;25.20;;;;;;;;;;5037039;28;20228;-81
2021/04/24 01:42:52;;;;;;;38.07;24.80;;;;;;;;;;5036757;28;20183;-81
2021/04/24 01:45:19;;;;;;;42.43;23.40;;;;;;;;;;5036207;28;20172;-81
2021/04/24 01:47:45;;;;;;;32.77;19.43;;;;;;;;;;5035980;28;20219;-81
2021/04/24 01:50:11;;;;;;;32.33;19.20;;;;;;;;;;5035975;28;20662;-81
2021/04/24 01:52:38;;;;;;;32.93;19.70;;;;;;;;;;5035798;28;20732;-81
2021/04/24 01:55:07;;;;;;;43.20;24.53;;;;;;;;;;5035907;28;20226;-81
2021/04/24 01:57:32;;;;;;;35.57;20.47;;;;;;;;;;5035878;28;20238;-80
2021/04/24 01:59:58;;;;;;;31.73;18.33;;;;;;;;;;5035895;28;20176;-80
2021/04/24 02:02:24;;;;;;;41.43;22.17;;;;;;;;;;5036128;28;20180;-80
2021/04/24 02:04:50;;;;;;;28.10;17.20;;;;;;;;;;5035699;28;20171;-80
2021/04/24 02:07:15;;;;;;;29.60;18.47;;;;;;;;;;5035633;28;20203;-81
2021/04/24 02:09:40;;;;;;;27.23;17.17;;;;;;;;;;5035950;28;20180;-81
2021/04/24 02:12:07;;;;;;;23.27;14.40;;;;;;;;;;5036101;28;20175;-80
2021/04/24 02:14:39;;;;;;;25.60;15.07;;;;;;;;;;5035609;28;20227;-80
2021/04/24 02:17:05;;;;;;;22.27;14.13;;;;;;;;;;5036125;28;20199;-81
2021/04/24 02:19:30;;;;;;;19.43;13.13;;;;;;;;;;5035932;28;20176;-80
2021/04/24 02:21:56;;;;;;;23.93;15.17;;;;;;;;;;5035450;28;20168;-80
2021/04/24 02:24:21;;;;;;;23.77;15.10;;;;;;;;;;5035370;28;20196;-80
2021/04/24 02:26:47;;;;;;;25.43;15.93;;;;;;;;;;5035396;28;20255;-81
2021/04/24 02:29:12;;;;;;;23.43;15.03;;;;;;;;;;5035849;28;20175;-80
2021/04/24 02:31:37;;;;;;;24.77;15.40;;;;;;;;;;5035242;28;20176;-80
2021/04/24 02:34:03;;;;;;;22.90;14.40;;;;;;;;;;5035750;28;20199;-81
2021/04/24 02:36:28;;;;;;;23.80;15.03;;;;;;;;;;5035845;28;20175;-81
2021/04/24 02:38:54;;;;;;;22.07;13.80;;;;;;;;;;5035687;28;20309;-81
2021/04/24 02:41:20;;;;;;;23.03;14.37;;;;;;;;;;5034026;28;20196;-81
2021/04/24 02:43:45;;;;;;;23.23;15.73;;;;;;;;;;5035289;28;20177;-81
2021/04/24 02:46:12;;;;;;;23.97;15.03;;;;;;;;;;5035231;28;20603;-81
2021/04/24 02:48:37;;;;;;;28.03;15.73;;;;;;;;;;5034847;28;20682;-81
2021/04/24 02:51:02;;;;;;;21.60;15.17;;;;;;;;;;5035451;28;20176;-81
2021/04/24 02:53:28;;;;;;;22.17;14.23;;;;;;;;;;5035447;28;20240;-81
2021/04/24 02:55:53;;;;;;;18.97;13.57;;;;;;;;;;5034912;28;20677;-81
2021/04/24 02:58:18;;;;;;;21.27;13.20;;;;;;;;;;5035821;28;20204;-81
2021/04/24 03:00:44;;;;;;;24.50;14.23;;;;;;;;;;5035236;28;20513;-81
2021/04/24 03:03:11;;;;;;;24.10;15.50;;;;;;;;;;5035458;28;20177;-81
2021/04/24 03:05:38;;;;;;;21.87;14.60;;;;;;;;;;5034866;28;20615;-81
2021/04/24 03:08:05;;;;;;;18.80;12.80;;;;;;;;;;5035112;28;20222;-81
2021/04/24 03:10:30;;;;;;;19.90;12.67;;;;;;;;;;5034551;28;20529;-81
2021/04/24 03:12:56;;;;;;;23.07;14.17;;;;;;;;;;5034825;28;20200;-81
2021/04/24 03:15:21;;;;;;;24.50;13.50;;;;;;;;;;5034827;28;20178;-81
2021/04/24 03:17:46;;;;;;;17.37;11.50;;;;;;;;;;5035256;28;20175;-81
2021/04/24 03:20:13;;;;;;;18.00;11.33;;;;;;;;;;5034620;28;20165;-81
2021/04/24 03:22:38;;;;;;;19.37;10.73;;;;;;;;;;5034302;28;20207;-81
2021/04/24 03:25:05;;;;;;;17.53;12.10;;;;;;;;;;5034236;28;20226;-81
2021/04/24 03:27:30;;;;;;;16.90;10.80;;;;;;;;;;5034204;28;20647;-82
2021/04/24 03:29:56;;;;;;;15.03;10.37;;;;;;;;;;5034556;28;20172;-81
2021/04/24 03:32:21;;;;;;;18.10;10.27;;;;;;;;;;5034208;28;20290;-81
2021/04/24 03:34:47;;;;;;;16.73;10.47;;;;;;;;;;5034446;28;20255;-82
2021/04/24 03:37:12;;;;;;;17.87;10.40;;;;;;;;;;5034321;28;20204;-82
2021/04/24 03:39:38;;;;;;;17.40;11.53;;;;;;;;;;5034227;28;20243;-81
2021/04/24 03:42:03;;;;;;;17.97;11.43;;;;;;;;;;5034520;28;20172;-81
2021/04/24 03:44:28;;;;;;;16.67;10.40;;;;;;;;;;5034449;28;20260;-82
2021/04/24 03:46:54;;;;;;;17.90;10.53;;;;;;;;;;5033800;28;20295;-82
2021/04/24 03:49:20;;;;;;;17.87;10.60;;;;;;;;;;5034380;28;20224;-82
2021/04/24 03:51:45;;;;;;;18.20;10.13;;;;;;;;;;5033864;28;20172;-82
2021/04/24 03:54:10;;;;;;;15.90;10.30;;;;;;;;;;5034007;28;20192;-81
2021/04/24 03:56:35;;;;;;;16.40;10.30;;;;;;;;;;5034089;28;20179;-82
2021/04/24 03:59:01;;;;;;;18.43;10.50;;;;;;;;;;5034071;28;20173;-81
2021/04/24 04:01:26;;;;;;;22.03;11.10;;;;;;;;;;5034564;28;20517;-81
2021/04/24 04:03:52;;;;;;;17.37;10.57;;;;;;;;;;5033767;28;20172;-81
2021/04/24 04:06:17;;;;;;;17.03;11.00;;;;;;;;;;5033815;28;20526;-81
2021/04/24 04:08:42;;;;;;;17.53;11.30;;;;;;;;;;5034411;28;20213;-81
2021/04/24 04:11:08;;;;;;;19.60;12.30;;;;;;;;;;5034230;28;20279;-81
2021/04/24 04:13:33;;;;;;;22.10;13.67;;;;;;;;;;5033485;28;20224;-81
2021/04/24 04:15:58;;;;;;;17.67;13.33;;;;;;;;;;5033601;28;20180;-81
2021/04/24 04:18:24;;;;;;;18.07;12.60;;;;;;;;;;5034120;28;20168;-81
2021/04/24 04:20:53;;;;;;;15.43;12.53;;;;;;;;;;5034047;28;20177;-81
2021/04/24 04:23:19;;;;;;;21.13;13.57;;;;;;;;;;5034067;28;20534;-81
2021/04/24 04:25:45;;;;;;;14.67;11.87;;;;;;;;;;5033841;28;20172;-80
2021/04/24 04:28:10;;;;;;;15.73;11.90;;;;;;;;;;5034384;28;20619;-81
2021/04/24 04:30:36;;;;;;;15.75;11.93;;;;;;;;;;5033713;28;20181;-81
2021/04/24 04:33:03;;;;;;;14.95;12.63;;;;;;;;;;5033609;28;20208;-81
2021/04/24 04:35:28;;;;;;;14.40;12.63;;;;;;;;;;5034190;28;20172;-80
2021/04/24 04:37:54;;;;;;;16.00;12.63;;;;;;;;;;5034201;28;20172;-81
2021/04/24 04:40:20;;;;;;;17.08;15.18;;;;;;;;;;5033657;28;20235;-80
2021/04/24 04:42:45;;;;;;;16.17;14.48;;;;;;;;;;5033326;28;20229;-80
2021/04/24 04:45:11;;;;;;;15.23;12.80;;;;;;;;;;5032656;28;20635;-80
2021/04/24 04:47:37;;;;;;;15.07;12.25;;;;;;;;;;5033308;28;20550;-80
2021/04/24 04:50:06;;;;;;;14.02;12.52;;;;;;;;;;5033278;28;20169;-80
2021/04/24 04:52:32;;;;;;;14.02;11.15;;;;;;;;;;5033019;28;20211;-80
2021/04/24 04:54:57;;;;;;;12.38;10.40;;;;;;;;;;5033499;28;20177;-80
2021/04/24 04:57:23;;;;;;;13.48;9.90;;;;;;;;;;5033430;28;20203;-80
2021/04/24 04:59:48;;;;;;;13.40;9.73;;;;;;;;;;5033487;28;20255;-81
2021/04/24 05:02:13;;;;;;;13.45;11.00;;;;;;;;;;5033121;28;20214;-81
2021/04/24 05:04:39;;;;;;;12.02;10.55;;;;;;;;;;5034325;28;20251;-81
2021/04/24 05:07:04;;;;;;;11.95;10.57;;;;;;;;;;5037143;28;20176;-81
2021/04/24 05:09:29;;;;;;;12.38;11.18;;;;;;;;;;5036792;28;20168;-81
2021/04/24 05:11:55;;;;;;;12.90;11.30;;;;;;;;;;5036962;28;20534;-81
2021/04/24 05:14:20;;;;;;;12.13;10.77;;;;;;;;;;5037191;28;20207;-81
2021/04/24 05:16:45;;;;;;;10.80;9.70;;;;;;;;;;5036971;28;20314;-80
2021/04/24 05:19:11;;;;;;;10.10;9.20;;;;;;;;;;5036587;28;20177;-80
2021/04/24 05:21:36;;;;;;;12.73;10.38;;;;;;;;;;5036578;28;20214;-80
2021/04/24 05:24:05;;;;;;;12.98;11.68;;;;;;;;;;5037270;28;20172;-80
2021/04/24 05:26:30;;;;;;;13.10;11.88;;;;;;;;;;5037605;28;20530;-80
2021/04/24 05:28:55;;;;;;;12.70;11.50;;;;;;;;;;5036405;28;20181;-80
2021/04/24 05:31:21;;;;;;;12.60;11.30;;;;;;;;;;5036328;28;20176;-80
2021/04/24 05:33:46;;;;;;;10.98;9.35;;;;;;;;;;5036532;28;20196;-80
2021/04/24 05:36:14;;;;;;;10.02;9.13;;;;;;;;;;5036643;28;20175;-81
2021/04/24 05:38:40;;;;;;;10.48;8.68;;;;;;;;;;5036277;28;20620;-81
2021/04/24 05:41:06;;;;;;;10.18;9.18;;;;;;;;;;5036439;28;20176;-80
2021/04/24 05:43:32;;;;;;;8.80;7.90;;;;;;;;;;5036848;28;20180;-80
2021/04/24 05:45:57;;;;;;;9.85;8.25;;;;;;;;;;5036414;28;20603;-80
2021/04/24 05:48:23;;;;;;;7.60;6.90;;;;;;;;;;5036008;28;20219;-81
2021/04/24 05:50:48;;;;;;;8.10;6.88;;;;;;;;;;5036616;28;20177;-81
2021/04/24 05:53:13;;;;;;;23.35;20.85;;;;;;;;;;5035897;28;20205;-81
2021/04/24 05:55:38;;;;;;;18.83;16.63;;;;;;;;;;5036122;28;20176;-81
2021/04/24 05:58:04;;;;;;;8.80;7.28;;;;;;;;;;5035909;28;20169;-81
2021/04/24 06:00:29;;;;;;;8.48;7.22;;;;;;;;;;5036628;28;20246;-81
2021/04/24 06:02:55;;;;;;;6.90;6.10;;;;;;;;;;5036446;28;20546;-82
2021/04/24 06:05:20;;;;;;;5.78;5.13;;;;;;;;;;5036090;28;20169;-81
2021/04/24 06:07:46;;;;;;;7.63;6.50;;;;;;;;;;5036012;28;20184;-81
2021/04/24 06:10:12;;;;;;;6.90;5.57;;;;;;;;;;5035928;28;20165;-82
2021/04/24 06:12:39;;;;;;;5.78;5.28;;;;;;;;;;5036071;28;20283;-81
2021/04/24 06:15:05;;;;;;;4.82;4.43;;;;;;;;;;5036593;28;20180;-81
2021/04/24 06:17:31;;;;;;;4.63;4.22;;;;;;;;;;5035458;28;20522;-81
2021/04/24 06:19:56;;;;;;;4.65;4.25;;;;;;;;;;5035970;28;20176;-81
2021/04/24 06:22:21;;;;;;;4.85;4.40;;;;;;;;;;5034453;28;20627;-81
2021/04/24 06:24:47;;;;;;;4.55;4.10;;;;;;;;;;5035119;28;20164;-81
2021/04/24 06:27:12;;;;;;;5.05;4.57;;;;;;;;;;5036057;28;20172;-82
2021/04/24 06:29:37;;;;;;;5.40;4.82;;;;;;;;;;5035653;28;20200;-81
2021/04/24 06:32:03;;;;;;;4.93;4.40;;;;;;;;;;5035828;28;20576;-81
2021/04/24 06:34:28;;;;;;;4.97;4.57;;;;;;;;;;5035937;28;20207;-81
2021/04/24 06:36:54;;;;;;;7.63;5.60;;;;;;;;;;5035183;28;20177;-81
2021/04/24 06:39:19;;;;;;;4.47;4.07;;;;;;;;;;5035231;28;20232;-81
2021/04/24 06:41:44;;;;;;;4.50;3.63;;;;;;;;;;5035086;28;20161;-80
2021/04/24 06:44:10;;;;;;;4.53;4.13;;;;;;;;;;5035265;28;20183;-80
2021/04/24 06:46:35;;;;;;;4.72;4.15;;;;;;;;;;5035292;28;20373;-80
2021/04/24 06:49:00;;;;;;;4.15;3.65;;;;;;;;;;5035430;28;20644;-80
2021/04/24 06:51:26;;;;;;;4.88;4.28;;;;;;;;;;5035187;28;20665;-80
2021/04/24 06:53:52;;;;;;;4.20;3.80;;;;;;;;;;5034805;28;20288;-80
2021/04/24 06:56:17;;;;;;;3.75;3.30;;;;;;;;;;5035347;28;20196;-80
2021/04/24 06:58:43;;;;;;;3.60;3.30;;;;;;;;;;5035058;28;20207;-80
2021/04/24 07:01:08;;;;;;;3.92;3.63;;;;;;;;;;5035228;28;20173;-80
2021/04/24 07:03:33;;;;;;;5.28;3.80;;;;;;;;;;5034945;28;20226;-80
2021/04/24 07:05:59;;;;;;;3.63;3.33;;;;;;;;;;5035212;28;20165;-80
2021/04/24 07:08:24;;;;;;;4.60;4.20;;;;;;;;;;5035399;28;20164;-80
2021/04/24 07:10:50;;;;;;;3.78;3.42;;;;;;;;;;5034842;28;20223;-80
2021/04/24 07:13:15;;;;;;;5.47;3.70;;;;;;;;;;5034519;28;20231;-82
2021/04/24 07:15:40;;;;;;;3.85;3.45;;;;;;;;;;5034624;28;20173;-80
2021/04/24 07:18:06;;;;;;;4.85;3.90;;;;;;;;;;5034958;28;20176;-80
2021/04/24 07:20:31;;;;;;;4.18;3.78;;;;;;;;;;5034381;28;20168;-81
2021/04/24 07:22:57;;;;;;;10.95;9.82;;;;;;;;;;5033476;28;20226;-80
2021/04/24 07:25:22;;;;;;;4.57;4.15;;;;;;;;;;5032951;28;20175;-80
2021/04/24 07:27:47;;;;;;;7.60;6.55;;;;;;;;;;5032982;28;20169;-80
2021/04/24 07:30:13;;;;;;;11.95;7.68;;;;;;;;;;5034683;28;20615;-80
2021/04/24 07:32:38;;;;;;;9.65;7.32;;;;;;;;;;5031881;28;20674;-81
2021/04/24 07:35:05;;;;;;;13.75;8.52;;;;;;;;;;5028642;28;20181;-81
2021/04/24 07:37:31;;;;;;;6.78;4.50;;;;;;;;;;5030901;28;20172;-80
2021/04/24 07:39:56;;;;;;;5.28;4.60;;;;;;;;;;5031178;28;20289;-80
2021/04/24 07:42:22;;;;;;;7.13;6.38;;;;;;;;;;5033995;28;20244;-80
2021/04/24 07:44:47;;;;;;;4.80;3.85;;;;;;;;;;5033853;28;20175;-82
2021/04/24 07:47:12;;;;;;;5.57;4.07;;;;;;;;;;5032141;28;20256;-80
2021/04/24 07:49:38;;;;;;;4.90;4.40;;;;;;;;;;5032211;28;20215;-81
2021/04/24 07:52:05;;;;;;;4.93;4.10;;;;;;;;;;5030795;28;20196;-81
2021/04/24 07:54:30;;;;;;;21.85;19.63;;;;;;;;;;5031848;28;20730;-81
2021/04/24 07:56:56;;;;;;;7.70;6.57;;;;;;;;;;5032069;28;20259;-81
2021/04/24 07:59:22;;;;;;;6.05;4.90;;;;;;;;;;5032006;28;20173;-79
2021/04/24 08:01:47;;;;;;;6.45;5.60;;;;;;;;;;5030690;28;20253;-81
2021/04/24 08:04:12;;;;;;;5.03;4.50;;;;;;;;;;5030436;28;20705;-81
2021/04/24 08:06:37;;;;;;;7.65;6.22;;;;;;;;;;5029536;28;20275;-81
2021/04/24 08:09:04;;;;;;;5.68;4.70;;;;;;;;;;5030427;28;20184;-82
2021/04/24 08:11:29;;;;;;;6.38;5.07;;;;;;;;;;5032182;28;20175;-81
2021/04/24 08:13:55;;;;;;;6.75;5.55;;;;;;;;;;5033773;28;20196;-81
2021/04/24 08:16:20;;;;;;;5.47;4.97;;;;;;;;;;5033148;28;20187;-80
2021/04/24 08:18:45;;;;;;;6.25;5.38;;;;;;;;;;5032005;28;20260;-81
2021/04/24 08:21:11;;;;;;;6.43;5.65;;;;;;;;;;5032283;28;20180;-80
2021/04/24 08:23:36;;;;;;;7.07;6.47;;;;;;;;;;5031645;28;20692;-81
2021/04/24 08:26:01;;;;;;;5.88;5.28;;;;;;;;;;5029846;28;20615;-81
2021/04/24 08:28:27;;;;;;;10.15;5.78;;;;;;;;;;5030452;28;20257;-82
2021/04/24 08:30:52;;;;;;;6.60;5.85;;;;;;;;;;5031802;28;20524;-81
2021/04/24 08:33:17;;;;;;;5.63;4.90;;;;;;;;;;5031772;28;20223;-81
2021/04/24 08:35:43;;;;;;;5.53;4.60;;;;;;;;;;5031651;28;20172;-81
2021/04/24 08:38:08;;;;;;;6.43;4.43;;;;;;;;;;5031539;28;20169;-81
2021/04/24 08:40:34;;;;;;;6.73;4.10;;;;;;;;;;5035993;28;20691;-81
2021/04/24 08:43:00;;;;;;;5.00;4.37;;;;;;;;;;5036972;28;20683;-81
2021/04/24 08:45:27;;;;;;;5.30;4.60;;;;;;;;;;5037428;28;20176;-80
2021/04/24 08:47:53;;;;;;;5.30;4.80;;;;;;;;;;5037342;28;20193;-80
2021/04/24 08:50:23;;;;;;;7.63;5.00;;;;;;;;;;5037129;28;20238;-81
2021/04/24 08:52:50;;;;;;;6.03;4.80;;;;;;;;;;5037436;28;20723;-80
2021/04/24 08:55:29;;;;;;;4.43;4.03;;;;;;;;;;5035731;28;20180;-80
2021/04/24 08:57:54;;;;;;;4.77;4.27;;;;;;;;;;5036389;28;20184;-80
2021/04/24 09:00:21;;;;;;;5.37;4.57;;;;;;;;;;5036744;28;20230;-80
2021/04/24 09:02:46;;;;;;;6.03;4.33;;;;;;;;;;5036765;28;20180;-80
2021/04/24 09:05:13;;;;;;;4.50;3.63;;;;;;;;;;5037061;28;20604;-80
2021/04/24 09:07:38;;;;;;;6.23;4.07;;;;;;;;;;5037292;28;20172;-80
2021/04/24 09:10:04;;;;;;;7.97;4.63;;;;;;;;;;5035421;28;20180;-80
2021/04/24 09:12:39;;;;;;;4.50;4.00;;;;;;;;;;5036199;28;20204;-80
2021/04/24 09:15:24;;;;;;;5.87;4.07;;;;;;;;;;5036808;28;20168;-81
2021/04/24 09:17:51;;;;;;;5.97;4.20;;;;;;;;;;5036753;28;20165;-80
2021/04/24 09:20:17;;;;;;;7.23;4.37;;;;;;;;;;5035536;28;20187;-80
2021/04/24 09:22:42;;;;;;;6.97;4.50;;;;;;;;;;5036742;28;20172;-79
2021/04/24 09:25:08;;;;;;;5.37;4.43;;;;;;;;;;5036724;28;20181;-80
2021/04/24 09:27:45;;;;;;;7.10;4.97;;;;;;;;;;5036581;28;20627;-80
2021/04/24 09:30:15;;;;;;;6.87;4.47;;;;;;;;;;5036560;28;20263;-80
2021/04/24 09:32:40;;;;;;;6.83;4.97;;;;;;;;;;5034625;28;20291;-80
2021/04/24 09:35:06;;;;;;;7.40;4.60;;;;;;;;;;5035657;28;20275;-80
2021/04/24 09:37:31;;;;;;;5.93;4.53;;;;;;;;;;5036578;28;20267;-80
2021/04/24 09:39:57;;;;;;;6.53;5.37;;;;;;;;;;5036416;28;20231;-80
2021/04/24 09:42:38;;;;;;;6.63;5.17;;;;;;;;;;5035109;28;20180;-80
2021/04/24 09:45:23;;;;;;;6.23;5.63;;;;;;;;;;5036112;28;20638;-80
2021/04/24 09:47:48;;;;;;;6.30;5.30;;;;;;;;;;5034353;28;20562;-80
2021/04/24 09:50:15;;;;;;;8.30;5.60;;;;;;;;;;5035395;28;20176;-80
2021/04/24 09:52:40;;;;;;;7.27;5.73;;;;;;;;;;5035994;28;20200;-80
2021/04/24 09:55:06;;;;;;;7.23;5.93;;;;;;;;;;5036134;28;20662;-80
2021/04/24 09:57:33;;;;;;;8.47;5.80;;;;;;;;;;5036372;28;20196;-79
2021/04/24 10:00:05;;;;;;;5.90;5.30;;;;;;;;;;5037642;28;20189;-81
2021/04/24 10:02:30;;;;;;;6.50;5.40;;;;;;;;;;5041695;28;20168;-79
2021/04/24 10:05:11;;;;;;;6.63;5.60;;;;;;;;;;5042139;28;20183;-80
2021/04/24 10:07:37;;;;;;;5.90;5.30;;;;;;;;;;5043315;28;20179;-80
2021/04/24 10:10:04;;;;;;;6.90;5.80;;;;;;;;;;5042421;28;20619;-79
2021/04/24 10:12:29;;;;;;;6.20;5.60;;;;;;;;;;5041339;28;20234;-80
2021/04/24 10:14:54;;;;;;;8.50;5.50;;;;;;;;;;5040077;28;20172;-81
2021/04/24 10:17:20;;;;;;;7.33;6.10;;;;;;;;;;5035863;28;20222;-80
2021/04/24 10:19:46;;;;;;;8.60;6.47;;;;;;;;;;5035685;28;20169;-80
2021/04/24 10:22:13;;;;;;;8.30;6.43;;;;;;;;;;5035714;28;20176;-81
2021/04/24 10:24:38;;;;;;;8.53;6.13;;;;;;;;;;5035277;28;20208;-80
2021/04/24 10:27:04;;;;;;;8.53;5.63;;;;;;;;;;5034496;28;20598;-81
2021/04/24 10:29:30;;;;;;;8.03;5.43;;;;;;;;;;5033347;28;20184;-82
2021/04/24 10:31:55;;;;;;;7.87;4.97;;;;;;;;;;5033802;28;20177;-82
2021/04/24 10:34:21;;;;;;;6.57;5.07;;;;;;;;;;5032930;28;20200;-81
2021/04/24 10:36:47;;;;;;;6.73;5.57;;;;;;;;;;5033946;28;20196;-82
2021/04/24 10:39:17;;;;;;;7.77;5.37;;;;;;;;;;5033270;28;20224;-82
2021/04/24 10:41:46;;;;;;;8.40;7.03;;;;;;;;;;5032902;28;20180;-81
2021/04/24 10:44:16;;;;;;;6.27;5.67;;;;;;;;;;5033246;28;20185;-81
2021/04/24 10:46:48;;;;;;;7.10;5.60;;;;;;;;;;5033155;28;20203;-81
2021/04/24 10:49:22;;;;;;;6.97;5.47;;;;;;;;;;5033336;28;20188;-81
2021/04/24 10:51:54;;;;;;;5.77;5.00;;;;;;;;;;5033612;28;20225;-81
2021/04/24 10:54:19;;;;;;;6.30;5.20;;;;;;;;;;5034699;28;20197;-81
2021/04/24 10:56:45;;;;;;;13.37;11.67;;;;;;;;;;5034788;28;20261;-81
2021/04/24 10:59:23;;;;;;;6.50;5.40;;;;;;;;;;5035004;28;20176;-81
2021/04/24 11:02:08;;;;;;;6.40;4.90;;;;;;;;;;5034703;28;20177;-81
2021/04/24 11:04:40;;;;;;;8.03;5.20;;;;;;;;;;5035132;28;20181;-80
2021/04/24 11:07:33;;;;;;;6.63;4.93;;;;;;;;;;5035140;28;20172;-81
2021/04/24 11:10:10;;;;;;;11.87;6.47;;;;;;;;;;5034996;28;20279;-80
2021/04/24 11:12:38;;;;;;;8.63;6.53;;;;;;;;;;5034372;28;20175;-80
2021/04/24 11:15:06;;;;;;;7.93;6.13;;;;;;;;;;5034624;28;20173;-81
2021/04/24 11:17:32;;;;;;;7.17;5.90;;;;;;;;;;5034770;28;20165;-80
2021/04/24 11:19:57;;;;;;;5.90;5.23;;;;;;;;;;5034928;28;20177;-81
2021/04/24 11:22:32;;;;;;;6.80;6.00;;;;;;;;;;5034951;28;20175;-81
2021/04/24 11:25:16;;;;;;;7.60;5.73;;;;;;;;;;5034764;28;20620;-81
2021/04/24 11:28:00;;;;;;;6.20;5.33;;;;;;;;;;5034394;28;20682;-81
2021/04/24 11:30:44;;;;;;;7.83;6.53;;;;;;;;;;5034504;28;20169;-81
2021/04/24 11:33:28;;;;;;;8.33;6.87;;;;;;;;;;5034324;28;20888;-81
2021/04/24 11:36:12;;;;;;;7.97;6.70;;;;;;;;;;5034095;28;20591;-81
2021/04/24 11:41:29;;;;;;;8.93;6.67;;;;;;;;;;5034302;28;20185;-80
2021/04/24 11:43:55;;;;;;;7.70;6.40;;;;;;;;;;5034007;28;20222;-81
2021/04/24 11:46:39;;;;;;;9.70;6.97;;;;;;;;;;5034621;28;20176;-81
2021/04/24 11:49:05;;;;;;;7.50;6.70;;;;;;;;;;5031364;28;20192;-81
2021/04/24 11:51:35;;;;;;;7.80;7.00;;;;;;;;;;5031915;28;20180;-81
2021/04/24 11:54:01;;;;;;;7.00;6.30;;;;;;;;;;5033901;28;20204;-80
2021/04/24 11:56:26;;;;;;;7.90;7.10;;;;;;;;;;5034364;28;20651;-80
2021/04/24 11:58:52;;;;;;;9.37;7.20;;;;;;;;;;5033644;28;20172;-80
2021/04/24 12:01:21;;;;;;;8.10;6.50;;;;;;;;;;5032775;28;20176;-80
2021/04/24 12:03:46;;;;;;;9.57;7.87;;;;;;;;;;5033303;28;20187;-81
2021/04/24 12:06:31;;;;;;;10.47;8.93;;;;;;;;;;5033854;28;20527;-81
2021/04/24 12:09:00;;;;;;;12.67;10.33;;;;;;;;;;5032625;28;20189;-80
2021/04/24 12:11:25;;;;;;;9.97;7.77;;;;;;;;;;5030597;28;20551;-82
2021/04/24 12:13:51;;;;;;;10.73;8.13;;;;;;;;;;5030466;28;20204;-81
2021/04/24 12:16:16;;;;;;;10.27;7.90;;;;;;;;;;5031038;28;20187;-81
2021/04/24 12:18:42;;;;;;;12.07;7.90;;;;;;;;;;5031857;28;20176;-80
2021/04/24 12:21:07;;;;;;;8.07;6.20;;;;;;;;;;5031314;28;20179;-81
2021/04/24 12:23:32;;;;;;;21.90;14.83;;;;;;;;;;5032394;28;20172;-81
2021/04/24 12:25:58;;;;;;;10.40;8.93;;;;;;;;;;5031923;28;20177;-81
2021/04/24 12:28:26;;;;;;;7.97;7.03;;;;;;;;;;5031756;28;20172;-81
2021/04/24 12:30:52;;;;;;;8.20;6.90;;;;;;;;;;5030843;28;20529;-81
2021/04/24 12:33:20;;;;;;;12.30;9.33;;;;;;;;;;5031858;28;20211;-81
2021/04/24 12:35:48;;;;;;;9.93;8.87;;;;;;;;;;5031675;28;20631;-81
2021/04/24 12:38:15;;;;;;;27.50;16.63;;;;;;;;;;5033552;28;20259;-81
2021/04/24 12:40:43;;;;;;;13.03;10.47;;;;;;;;;;5033228;28;20751;-80
2021/04/24 12:43:13;;;;;;;13.60;11.37;;;;;;;;;;5032842;28;20184;-80
2021/04/24 12:45:42;;;;;;;10.73;8.83;;;;;;;;;;5033172;28;20177;-81
2021/04/24 12:48:13;;;;;;;11.57;9.07;;;;;;;;;;5033212;28;20546;-81
2021/04/24 12:50:39;;;;;;;12.53;9.43;;;;;;;;;;5033418;28;20188;-80
2021/04/24 12:53:05;;;;;;;19.30;16.10;;;;;;;;;;5033265;28;20208;-81
2021/04/24 12:55:35;;;;;;;16.93;14.03;;;;;;;;;;5033143;28;20181;-80
2021/04/24 12:58:02;;;;;;;11.83;8.20;;;;;;;;;;5033251;28;20542;-80
2021/04/24 13:00:29;;;;;;;8.63;6.83;;;;;;;;;;5033338;28;20173;-80
2021/04/24 13:02:54;;;;;;;10.63;7.63;;;;;;;;;;5032976;28;20226;-80
2021/04/24 13:05:29;;;;;;;12.17;8.70;;;;;;;;;;5032123;28;20263;-80
2021/04/24 13:08:02;;;;;;;11.27;9.03;;;;;;;;;;5033511;28;20217;-80
2021/04/24 13:10:27;;;;;;;13.33;9.30;;;;;;;;;;5033416;28;20165;-80
2021/04/24 13:12:57;;;;;;;14.03;9.30;;;;;;;;;;5032937;28;20204;-80
2021/04/24 13:15:22;;;;;;;7.87;6.07;;;;;;;;;;5033235;28;20177;-80
2021/04/24 13:17:48;;;;;;;7.00;5.53;;;;;;;;;;5032328;28;20176;-80
2021/04/24 13:20:33;;;;;;;6.00;4.77;;;;;;;;;;5027820;28;20172;-80
2021/04/24 13:23:11;;;;;;;6.67;4.90;;;;;;;;;;5030723;28;20199;-80
2021/04/24 13:25:37;;;;;;;7.00;5.13;;;;;;;;;;5033553;28;20165;-80
2021/04/24 13:28:03;;;;;;;8.57;5.90;;;;;;;;;;5036521;28;20176;-80
2021/04/24 13:30:28;;;;;;;7.13;6.43;;;;;;;;;;5036696;28;20260;-81
2021/04/24 13:32:54;;;;;;;7.00;5.17;;;;;;;;;;5035520;28;20204;-81
2021/04/24 13:35:20;;;;;;;6.57;5.47;;;;;;;;;;5034669;28;20598;-80
2021/04/24 13:37:45;;;;;;;7.07;5.10;;;;;;;;;;5036324;28;20203;-80
2021/04/24 13:40:11;;;;;;;7.00;5.77;;;;;;;;;;5031721;28;20224;-81
2021/04/24 13:42:40;;;;;;;6.73;6.03;;;;;;;;;;5036099;28;20176;-81
2021/04/24 13:45:13;;;;;;;8.37;6.63;;;;;;;;;;5035226;28;20180;-81
2021/04/24 13:47:40;;;;;;;7.03;5.90;;;;;;;;;;5036387;28;20192;-80
2021/04/24 13:50:06;;;;;;;8.40;6.07;;;;;;;;;;5036313;28;20176;-81
2021/04/24 13:52:31;;;;;;;7.50;6.13;;;;;;;;;;5036570;28;20177;-81
2021/04/24 13:54:57;;;;;;;9.30;6.20;;;;;;;;;;5035942;28;20200;-81
2021/04/24 13:57:22;;;;;;;7.10;5.50;;;;;;;;;;5036006;28;20165;-80
2021/04/24 13:59:47;;;;;;;14.13;9.87;;;;;;;;;;5035908;28;20176;-80
2021/04/24 14:02:13;;;;;;;9.27;6.40;;;;;;;;;;5035903;28;20533;-81
2021/04/24 14:04:39;;;;;;;18.97;11.67;;;;;;;;;;5034334;28;20202;-81
2021/04/24 14:07:05;;;;;;;7.97;6.60;;;;;;;;;;5033723;28;20175;-81
2021/04/24 14:09:30;;;;;;;7.70;6.30;;;;;;;;;;5034242;28;20172;-80
2021/04/24 14:11:56;;;;;;;11.30;6.37;;;;;;;;;;5034413;28;20271;-80
2021/04/24 14:14:21;;;;;;;17.47;10.17;;;;;;;;;;5034173;28;20200;-81
2021/04/24 14:16:46;;;;;;;8.07;6.47;;;;;;;;;;5033773;28;20177;-81
2021/04/24 14:19:12;;;;;;;7.17;6.43;;;;;;;;;;5033750;28;20643;-81
2021/04/24 14:21:37;;;;;;;9.30;7.00;;;;;;;;;;5034010;28;20171;-80
2021/04/24 14:24:04;;;;;;;8.70;6.20;;;;;;;;;;5034931;28;20630;-80
2021/04/24 14:26:33;;;;;;;9.30;6.93;;;;;;;;;;5035346;28;20169;-80
2021/04/24 14:28:59;;;;;;;7.30;6.20;;;;;;;;;;5035323;28;20705;-81
2021/04/24 14:31:24;;;;;;;7.50;6.03;;;;;;;;;;5035184;28;20173;-81